Airfield :
LOGIN :

Register | Disclaimer

   EN    FR    IT 

 










Legend :    VFR   Marginal VFR   IFR   Intensive IFR   Very Intensive IFR
Visi :
Ceiling :
>= 8 km
>= 3000ft
5 to 8 km
1000 to 3000 ft
1500m to 5 km
500 to 1000 ft
800 to 1500m
200 to 500 ft
< 800m
< 200 ft
Symbols :   Thunderstorms  Fog  Heavy snow  Heavy precipitations  Wind > 20 kt
SIGMETs :     Misc.  Thunderstorms  Icing  Turbulence  Mountain Waves  Volcanic Ashes






- Airport Elevation : 330 ft
- IATA code : LVA


LFOV - Laval-Entrammes

CURRENT METAR :
  • 132300Z AUTO 05003KT 010V070 6000 NSC 13/13 Q1011

EXPIRED METARs :
  • 132230Z AUTO 07003KT 6000 SCT006 OVC080 14/14 Q1011
  • 132200Z AUTO 00000KT 5000 BR FEW006 OVC076 14/14 Q1012
  • 132130Z AUTO 00000KT 7000 ///TCU 14/14 Q1012
  • 132100Z AUTO 00000KT 5000 -RA BR NSC 14/14 Q1012
  • 132030Z AUTO 14003KT 8000 -RA NSC 14/14 Q1012

TAF N/A



MET'MAP, your aeronautical weather chart ! - Copyright ORBIFLY December 2007 - Disclaimer

ORBIFLY MET'MAP TEAM :

Programming & Development : Alexandra Zaïnal
Concept & Development : Baudouin d'Aumeries
Co-Development & Prog : Marc-Olivier Méhu
Technical & hardware support : Manuel Goepfert

Contact : metmap@orbifly.com




SOURCES & CREDITS :

   NOAA